Time;durP1;ratioP1;P1;durP2;ratioP2;P2;SDS_P1;SDS_P2;PMS_P1;PMS_P2;Temp;Humidity;BMP_temperature;BMP_pressure;BME280_temperature;BME280_humidity;BME280_pressure;Samples;Min_cycle;Max_cycle;Signal;HPM_P1;HPM_P2
2021/03/20 00:02:16;;;;;;;;;;;;;;;;;;5050910;28;846;-62
2021/03/20 00:04:41;;;;;;;;;;;;;;;;;;5050391;28;839;-62
2021/03/20 00:07:06;;;;;;;;;;;;;;;;;;5050250;28;862;-62
2021/03/20 00:09:32;;;;;;;;;;;;;;;;;;5050537;28;882;-63
2021/03/20 00:11:58;;;;;;;;;;;;;;;;;;5050286;28;1894;-62
2021/03/20 00:14:24;;;;;;;;;;;;;;;;;;5049916;28;893;-62
2021/03/20 00:16:50;;;;;;;;;;;;;;;;;;5050120;28;871;-62
2021/03/20 00:19:16;;;;;;;;;;;;;;;;;;5051151;28;838;-62
2021/03/20 00:21:41;;;;;;;;;;;;;;;;;;5050394;28;945;-62
2021/03/20 00:24:07;;;;;;;;;;;;;;;;;;5052677;28;1582;-62
2021/03/20 00:26:32;;;;;;;;;;;;;;;;;;5049332;28;954;-63
2021/03/20 00:28:58;;;;;;;;;;;;;;;;;;5050719;28;834;-62
2021/03/20 00:31:24;;;;;;;;;;;;;;;;;;5049343;28;901;-62
2021/03/20 00:33:49;;;;;;;;;;;;;;;;;;5050078;28;1968;-62
2021/03/20 00:36:15;;;;;;;;;;;;;;;;;;5050514;28;897;-62
2021/03/20 00:38:41;;;;;;;;;;;;;;;;;;5049879;28;1887;-62
2021/03/20 00:41:07;;;;;;;;;;;;;;;;;;5049862;28;882;-62
2021/03/20 00:43:32;;;;;;;;;;;;;;;;;;5050306;28;827;-63
2021/03/20 00:45:58;;;;;;;;;;;;;;;;;;5050260;28;827;-62
2021/03/20 00:48:25;;;;;;;;;;;;;;;;;;5048186;28;855;-62
2021/03/20 00:50:51;;;;;;;;;;;;;;;;;;5049343;28;1946;-62
2021/03/20 00:53:16;;;;;;;;;;;;;;;;;;5054846;28;1910;-62
2021/03/20 00:55:42;;;;;;;;;;;;;;;;;;5069609;28;867;-62
2021/03/20 00:58:16;;;;;;;;;;;;;;;;;;5069764;28;893;-62
2021/03/20 01:00:42;;;;;;;;;;;;;;;;;;5069758;28;843;-62
2021/03/20 01:03:07;;;;;;;;;;;;;;;;;;5070012;28;966;-62
2021/03/20 01:05:33;;;;;;;;;;;;;;;;;;5069619;28;834;-62
2021/03/20 01:07:58;;;;;;;;;;;;;;;;;;5070627;28;799;-62
2021/03/20 01:10:23;;;;;;;;;;;;;;;;;;5068237;28;851;-62
2021/03/20 01:12:49;;;;;;;;;;;;;;;;;;5069241;28;1878;-62
2021/03/20 01:15:15;;;;;;;;;;;;;;;;;;5069349;28;882;-62
2021/03/20 01:17:41;;;;;;;;;;;;;;;;;;5069533;28;1044;-62
2021/03/20 01:20:07;;;;;;;;;;;;;;;;;;5069145;28;961;-62
2021/03/20 01:22:32;;;;;;;;;;;;;;;;;;5069320;28;1363;-63
2021/03/20 01:24:58;;;;;;;;;;;;;;;;;;5070345;28;916;-62
2021/03/20 01:27:23;;;;;;;;;;;;;;;;;;5069314;28;915;-62
2021/03/20 01:29:48;;;;;;;;;;;;;;;;;;5069000;28;827;-62
2021/03/20 01:32:14;;;;;;;;;;;;;;;;;;5069055;28;1890;-62
2021/03/20 01:34:39;;;;;;;;;;;;;;;;;;5069421;28;843;-62
2021/03/20 01:37:05;;;;;;;;;;;;;;;;;;5069036;28;878;-62
2021/03/20 01:39:30;;;;;;;;;;;;;;;;;;5069232;28;890;-62
2021/03/20 01:41:55;;;;;;;;;;;;;;;;;;5068414;28;917;-62
2021/03/20 01:44:23;;;;;;;;;;;;;;;;;;5068215;28;950;-62
2021/03/20 01:46:50;;;;;;;;;;;;;;;;;;5068116;28;862;-62
2021/03/20 01:49:16;;;;;;;;;;;;;;;;;;5068899;28;847;-62
2021/03/20 01:51:41;;;;;;;;;;;;;;;;;;5069027;28;1890;-62
2021/03/20 01:54:07;;;;;;;;;;;;;;;;;;5056236;28;1172;-63
2021/03/20 01:56:43;;;;;;;;;;;;;;;;;;5048806;28;886;-62
2021/03/20 01:59:10;;;;;;;;;;;;;;;;;;5049056;28;981;-62
2021/03/20 02:01:36;;;;;;;;;;;;;;;;;;5048487;28;891;-62
2021/03/20 02:04:02;;;;;;;;;;;;;;;;;;5047396;28;858;-62
2021/03/20 02:06:28;;;;;;;;;;;;;;;;;;5048914;28;898;-63
2021/03/20 02:08:54;;;;;;;;;;;;;;;;;;5048850;28;807;-62
2021/03/20 02:11:20;;;;;;;;;;;;;;;;;;5048448;28;901;-62
2021/03/20 02:13:58;;;;;;;;;;;;;;;;;;5048125;28;1971;-62
2021/03/20 02:16:26;;;;;;;;;;;;;;;;;;5048494;28;878;-62
2021/03/20 02:19:01;;;;;;;;;;;;;;;;;;5047980;28;863;-62
2021/03/20 02:21:27;;;;;;;;;;;;;;;;;;5047575;28;863;-62
2021/03/20 02:24:11;;;;;;;;;;;;;;;;;;5050613;28;1049;-62
2021/03/20 02:26:55;;;;;;;;;;;;;;;;;;5047765;28;1009;-62
2021/03/20 02:29:21;;;;;;;;;;;;;;;;;;5047451;28;820;-62
2021/03/20 02:32:05;;;;;;;;;;;;;;;;;;5047537;28;1953;-62
2021/03/20 02:34:58;;;;;;;;;;;;;;;;;;5048338;28;847;-62
2021/03/20 02:37:42;;;;;;;;;;;;;;;;;;5047484;28;823;-62
2021/03/20 02:40:28;;;;;;;;;;;;;;;;;;5047634;28;823;-62
2021/03/20 02:42:58;;;;;;;;;;;;;;;;;;5047854;28;930;-62
2021/03/20 02:45:46;;;;;;;;;;;;;;;;;;5047881;28;946;-62
2021/03/20 02:48:22;;;;;;;;;;;;;;;;;;5047575;28;835;-62
2021/03/20 02:50:54;;;;;;;;;;;;;;;;;;5047154;28;890;-62
2021/03/20 02:53:43;;;;;;;;;;;;;;;;;;5052998;28;1971;-62
2021/03/20 02:56:11;;;;;;;;;;;;;;;;;;5066956;28;1234;-62
2021/03/20 02:58:48;;;;;;;;;;;;;;;;;;5066297;28;1032;-62
2021/03/20 03:01:16;;;;;;;;;;;;;;;;;;5067394;28;847;-62
2021/03/20 03:03:44;;;;;;;;;;;;;;;;;;5066944;28;826;-62
2021/03/20 03:06:12;;;;;;;;;;;;;;;;;;5067368;28;814;-63
2021/03/20 03:08:44;;;;;;;;;;;;;;;;;;5067199;28;941;-63
2021/03/20 03:11:13;;;;;;;;;;;;;;;;;;5067136;28;843;-62
2021/03/20 03:13:40;;;;;;;;;;;;;;;;;;5067118;28;1961;-63
2021/03/20 03:16:12;;;;;;;;;;;;;;;;;;5067106;28;831;-62
2021/03/20 03:18:41;;;;;;;;;;;;;;;;;;5067123;28;909;-63
2021/03/20 03:21:07;;;;;;;;;;;;;;;;;;5067394;28;846;-63
2021/03/20 03:23:35;;;;;;;;;;;;;;;;;;5067562;28;827;-63
2021/03/20 03:26:04;;;;;;;;;;;;;;;;;;5068177;28;910;-62
2021/03/20 03:28:30;;;;;;;;;;;;;;;;;;5067625;28;890;-62
2021/03/20 03:30:57;;;;;;;;;;;;;;;;;;5067298;28;815;-62
2021/03/20 03:33:35;;;;;;;;;;;;;;;;;;5067017;28;1949;-62
2021/03/20 03:36:04;;;;;;;;;;;;;;;;;;5072473;28;901;-62
2021/03/20 03:38:42;;;;;;;;;;;;;;;;;;5072313;28;894;-61
2021/03/20 03:41:07;;;;;;;;;;;;;;;;;;5071413;28;882;-62
2021/03/20 03:43:33;;;;;;;;;;;;;;;;;;5070954;28;938;-63
2021/03/20 03:45:58;;;;;;;;;;;;;;;;;;5071739;28;862;-61
2021/03/20 03:48:24;;;;;;;;;;;;;;;;;;5071154;28;918;-62
2021/03/20 03:50:50;;;;;;;;;;;;;;;;;;5070420;28;831;-62
2021/03/20 03:53:18;;;;;;;;;;;;;;;;;;5064880;28;1963;-61
2021/03/20 03:55:44;;;;;;;;;;;;;;;;;;5050734;28;910;-62
2021/03/20 03:58:12;;;;;;;;;;;;;;;;;;5050540;28;906;-62
2021/03/20 04:00:43;;;;;;;;;;;;;;;;;;5050438;28;898;-61
2021/03/20 04:03:09;;;;;;;;;;;;;;;;;;5050675;28;815;-61
2021/03/20 04:05:53;;;;;;;;;;;;;;;;;;5050867;28;874;-61
2021/03/20 04:08:21;;;;;;;;;;;;;;;;;;5050447;28;827;-62
2021/03/20 04:10:51;;;;;;;;;;;;;;;;;;5050576;28;898;-62
2021/03/20 04:13:25;;;;;;;;;;;;;;;;;;5050827;28;1910;-61
2021/03/20 04:16:03;;;;;;;;;;;;;;;;;;5050535;28;831;-62
2021/03/20 04:18:29;;;;;;;;;;;;;;;;;;5050933;28;1028;-61
2021/03/20 04:21:03;;;;;;;;;;;;;;;;;;5050457;28;914;-62
2021/03/20 04:23:32;;;;;;;;;;;;;;;;;;5051292;28;842;-61
2021/03/20 04:26:00;;;;;;;;;;;;;;;;;;5053649;28;1112;-61
2021/03/20 04:28:25;;;;;;;;;;;;;;;;;;5050492;28;815;-61
2021/03/20 04:30:58;;;;;;;;;;;;;;;;;;5050446;28;854;-61
2021/03/20 04:33:25;;;;;;;;;;;;;;;;;;5050023;28;1885;-61
2021/03/20 04:35:53;;;;;;;;;;;;;;;;;;5049933;28;827;-61
2021/03/20 04:38:19;;;;;;;;;;;;;;;;;;5050266;28;823;-61
2021/03/20 04:40:54;;;;;;;;;;;;;;;;;;5050186;28;839;-61
2021/03/20 04:43:24;;;;;;;;;;;;;;;;;;5049685;28;1044;-61
2021/03/20 04:45:57;;;;;;;;;;;;;;;;;;5049676;28;903;-61
2021/03/20 04:48:24;;;;;;;;;;;;;;;;;;5048414;28;914;-61
2021/03/20 04:51:00;;;;;;;;;;;;;;;;;;5049697;28;942;-61
2021/03/20 04:53:26;;;;;;;;;;;;;;;;;;5056659;28;1894;-61
2021/03/20 04:55:55;;;;;;;;;;;;;;;;;;5069567;28;861;-61
2021/03/20 04:58:35;;;;;;;;;;;;;;;;;;5069612;28;834;-61
2021/03/20 05:01:08;;;;;;;;;;;;;;;;;;5070362;28;886;-61
2021/03/20 05:03:47;;;;;;;;;;;;;;;;;;5070211;28;827;-61
2021/03/20 05:06:14;;;;;;;;;;;;;;;;;;5069704;28;906;-61
2021/03/20 05:08:47;;;;;;;;;;;;;;;;;;5069566;28;909;-61
2021/03/20 05:11:12;;;;;;;;;;;;;;;;;;5069832;28;902;-61
2021/03/20 05:13:42;;;;;;;;;;;;;;;;;;5069342;28;1955;-61
2021/03/20 05:16:17;;;;;;;;;;;;;;;;;;5069621;28;814;-61
2021/03/20 05:18:46;;;;;;;;;;;;;;;;;;5069869;28;814;-62
2021/03/20 05:21:14;;;;;;;;;;;;;;;;;;5069471;28;842;-62
2021/03/20 05:23:39;;;;;;;;;;;;;;;;;;5069135;28;850;-62
2021/03/20 05:26:04;;;;;;;;;;;;;;;;;;5068902;28;839;-62
2021/03/20 05:28:30;;;;;;;;;;;;;;;;;;5070326;28;913;-62
2021/03/20 05:30:56;;;;;;;;;;;;;;;;;;5067654;28;862;-62
2021/03/20 05:33:21;;;;;;;;;;;;;;;;;;5069134;28;1885;-62
2021/03/20 05:35:46;;;;;;;;;;;;;;;;;;5069575;28;882;-62
2021/03/20 05:38:12;;;;;;;;;;;;;;;;;;5068990;28;914;-62
2021/03/20 05:40:37;;;;;;;;;;;;;;;;;;5068701;28;854;-62
2021/03/20 05:43:11;;;;;;;;;;;;;;;;;;5068462;28;909;-62
2021/03/20 05:45:40;;;;;;;;;;;;;;;;;;5068570;28;886;-62
2021/03/20 05:48:12;;;;;;;;;;;;;;;;;;5068681;28;843;-62
2021/03/20 05:50:57;;;;;;;;;;;;;;;;;;5068509;28;823;-62
2021/03/20 05:53:31;;;;;;;;;;;;;;;;;;5062421;28;1908;-62
2021/03/20 05:56:02;;;;;;;;;;;;;;;;;;5048385;28;827;-62
2021/03/20 05:58:27;;;;;;;;;;;;;;;;;;5048696;28;878;-62
2021/03/20 06:01:08;;;;;;;;;;;;;;;;;;5048451;28;823;-62
2021/03/20 06:03:39;;;;;;;;;;;;;;;;;;5048511;28;970;-62
2021/03/20 06:06:25;;;;;;;;;;;;;;;;;;5048468;28;1063;-62
2021/03/20 06:09:09;;;;;;;;;;;;;;;;;;5044593;28;1575;-62
2021/03/20 06:11:53;;;;;;;;;;;;;;;;;;5048566;28;910;-63
2021/03/20 06:14:21;;;;;;;;;;;;;;;;;;5048382;28;894;-62
2021/03/20 06:16:50;;;;;;;;;;;;;;;;;;5048608;28;839;-62
2021/03/20 06:19:30;;;;;;;;;;;;;;;;;;5049441;28;1196;-62
2021/03/20 06:22:14;;;;;;;;;;;;;;;;;;5048406;28;839;-62
2021/03/20 06:24:57;;;;;;;;;;;;;;;;;;5048068;28;903;-62
2021/03/20 06:27:27;;;;;;;;;;;;;;;;;;5048309;28;947;-62
2021/03/20 06:29:58;;;;;;;;;;;;;;;;;;5047947;28;906;-62
2021/03/20 06:32:27;;;;;;;;;;;;;;;;;;5047797;28;1919;-62
2021/03/20 06:34:56;;;;;;;;;;;;;;;;;;5048412;28;882;-62
2021/03/20 06:37:25;;;;;;;;;;;;;;;;;;5047487;28;835;-62
2021/03/20 06:39:50;;;;;;;;;;;;;;;;;;5047635;28;867;-62
2021/03/20 06:42:24;;;;;;;;;;;;;;;;;;5047930;28;929;-62
2021/03/20 06:44:54;;;;;;;;;;;;;;;;;;5047631;28;906;-61
2021/03/20 06:47:24;;;;;;;;;;;;;;;;;;5047772;28;862;-62
2021/03/20 06:50:08;;;;;;;;;;;;;;;;;;5047208;28;910;-62
2021/03/20 06:52:36;;;;;;;;;;;;;;;;;;5047200;28;1965;-62
2021/03/20 06:55:25;;;;;;;;;;;;;;;;;;5068091;28;1158;-62
2021/03/20 06:57:51;;;;;;;;;;;;;;;;;;5066998;28;1396;-61
2021/03/20 07:00:27;;;;;;;;;;;;;;;;;;5067469;28;819;-62
2021/03/20 07:02:58;;;;;;;;;;;;;;;;;;5067169;28;807;-62
2021/03/20 07:05:26;;;;;;;;;;;;;;;;;;5067251;28;901;-62
2021/03/20 07:07:58;;;;;;;;;;;;;;;;;;5067700;28;894;-62
2021/03/20 07:10:42;;;;;;;;;;;;;;;;;;5066952;28;950;-62
2021/03/20 07:13:14;;;;;;;;;;;;;;;;;;5066982;28;1898;-62
2021/03/20 07:15:40;;;;;;;;;;;;;;;;;;5034497;28;2582;-62
2021/03/20 07:18:38;;;;;;;;;;;;;;;;;;5046898;28;815;-61
2021/03/20 07:21:19;;;;;;;;;;;;;;;;;;5066998;28;1366;-63
2021/03/20 07:23:51;;;;;;;;;;;;;;;;;;5047336;28;824;-62
2021/03/20 07:26:17;;;;;;;;;;;;;;;;;;5047200;28;913;-62
2021/03/20 07:28:47;;;;;;;;;;;;;;;;;;5046902;28;969;-62
2021/03/20 07:31:13;;;;;;;;;;;;;;;;;;5046895;28;924;-62
2021/03/20 07:33:42;;;;;;;;;;;;;;;;;;5047215;28;1886;-62
2021/03/20 07:36:07;;;;;;;;;;;;;;;;;;5046930;28;863;-62
2021/03/20 07:38:32;;;;;;;;;;;;;;;;;;5043704;28;2597;-63
2021/03/20 07:41:24;;;;;;;;;;;;;;;;;;5039553;28;910;-62
2021/03/20 07:43:57;;;;;;;;;;;;;;;;;;5048365;28;1119;-62
2021/03/20 07:46:22;;;;;;;;;;;;;;;;;;5046704;28;950;-62
2021/03/20 07:48:57;;;;;;;;;;;;;;;;;;5047383;28;894;-62
2021/03/20 07:51:22;;;;;;;;;;;;;;;;;;5047224;28;835;-62
2021/03/20 07:53:49;;;;;;;;;;;;;;;;;;5056357;28;1894;-62
2021/03/20 07:56:14;;;;;;;;;;;;;;;;;;5066941;28;866;-62
2021/03/20 07:58:42;;;;;;;;;;;;;;;;;;5067071;28;835;-62
2021/03/20 08:01:16;;;;;;;;;;;;;;;;;;5066892;28;839;-62
2021/03/20 08:03:46;;;;;;;;;;;;;;;;;;5066817;28;819;-62
2021/03/20 08:06:13;;;;;;;;;;;;;;;;;;5067245;28;835;-62
2021/03/20 08:08:38;;;;;;;;;;;;;;;;;;5066760;28;834;-62
2021/03/20 08:11:05;;;;;;;;;;;;;;;;;;5063515;28;1077;-62
2021/03/20 08:13:33;;;;;;;;;;;;;;;;;;5067897;28;1960;-62
2021/03/20 08:15:59;;;;;;;;;;;;;;;;;;5067535;28;914;-62
2021/03/20 08:18:26;;;;;;;;;;;;;;;;;;5066648;28;839;-62
2021/03/20 08:21:07;;;;;;;;;;;;;;;;;;5068975;28;842;-62
2021/03/20 08:23:39;;;;;;;;;;;;;;;;;;5070962;28;870;-63
2021/03/20 08:26:04;;;;;;;;;;;;;;;;;;5069971;28;882;-63
2021/03/20 08:28:48;;;;;;;;;;;;;;;;;;5071116;28;818;-62
2021/03/20 08:31:32;;;;;;;;;;;;;;;;;;5070823;28;857;-62
2021/03/20 08:34:03;;;;;;;;;;;;;;;;;;5070674;28;1890;-62
2021/03/20 08:36:29;;;;;;;;;;;;;;;;;;5070502;28;922;-62
2021/03/20 08:39:03;;;;;;;;;;;;;;;;;;5070392;28;827;-62
2021/03/20 08:41:41;;;;;;;;;;;;;;;;;;5070924;28;823;-62
2021/03/20 08:44:17;;;;;;;;;;;;;;;;;;5069587;28;921;-62
2021/03/20 08:46:54;;;;;;;;;;;;;;;;;;5070084;28;914;-62
2021/03/20 08:49:20;;;;;;;;;;;;;;;;;;5070180;28;859;-62
2021/03/20 08:52:01;;;;;;;;;;;;;;;;;;5069664;28;858;-62
2021/03/20 08:54:35;;;;;;;;;;;;;;;;;;5054550;28;1101;-62
2021/03/20 08:57:06;;;;;;;;;;;;;;;;;;5050600;28;887;-61
2021/03/20 08:59:35;;;;;;;;;;;;;;;;;;5050535;28;820;-62
2021/03/20 09:02:19;;;;;;;;;;;;;;;;;;5050615;28;691;-62
2021/03/20 09:04:45;;;;;;;;;;;;;;;;;;5049985;28;934;-62
2021/03/20 09:07:19;;;;;;;;;;;;;;;;;;5049397;28;893;-62
2021/03/20 09:09:47;;;;;;;;;;;;;;;;;;5049876;28;1108;-62
2021/03/20 09:12:15;;;;;;;;;;;;;;;;;;5050240;28;1989;-62
2021/03/20 09:14:43;;;;;;;;;;;;;;;;;;5049088;28;910;-62
2021/03/20 09:17:20;;;;;;;;;;;;;;;;;;5049043;28;847;-62
2021/03/20 09:19:50;;;;;;;;;;;;;;;;;;5049744;28;957;-62
2021/03/20 09:22:17;;;;;;;;;;;;;;;;;;5048019;28;1198;-62
2021/03/20 09:24:51;;;;;;;;;;;;;;;;;;5048695;28;815;-62
2021/03/20 09:27:49;;;;;;;;;;;;;;;;;;5049266;28;819;-62
2021/03/20 09:30:19;;;;;;;;;;;;;;;;;;5037050;28;1186;-62
2021/03/20 09:32:48;;;;;;;;;;;;;;;;;;5048041;28;1961;-62
2021/03/20 09:35:23;;;;;;;;;;;;;;;;;;5048676;28;926;-63
2021/03/20 09:37:51;;;;;;;;;;;;;;;;;;5049721;28;869;-62
2021/03/20 09:40:36;;;;;;;;;;;;;;;;;;5048725;28;827;-62
2021/03/20 09:43:17;;;;;;;;;;;;;;;;;;5049752;28;856;-63
2021/03/20 09:45:42;;;;;;;;;;;;;;;;;;5049493;28;877;-62
2021/03/20 09:48:08;;;;;;;;;;;;;;;;;;5048757;28;858;-62
2021/03/20 09:50:34;;;;;;;;;;;;;;;;;;5048800;28;905;-63
2021/03/20 09:53:08;;;;;;;;;;;;;;;;;;5052717;28;1897;-62
2021/03/20 09:55:42;;;;;;;;;;;;;;;;;;5069490;28;901;-62
2021/03/20 09:58:20;;;;;;;;;;;;;;;;;;5068645;28;1101;-62
2021/03/20 10:00:45;;;;;;;;;;;;;;;;;;5068744;28;839;-62
2021/03/20 10:03:10;;;;;;;;;;;;;;;;;;5069317;28;909;-61
2021/03/20 10:05:36;;;;;;;;;;;;;;;;;;5068823;28;930;-62
2021/03/20 10:08:06;;;;;;;;;;;;;;;;;;5069525;28;909;-62
2021/03/20 10:10:32;;;;;;;;;;;;;;;;;;5069378;28;887;-63
2021/03/20 10:13:18;;;;;;;;;;;;;;;;;;5069353;28;1975;-61
2021/03/20 10:15:56;;;;;;;;;;;;;;;;;;5063952;28;1444;-62
2021/03/20 10:18:26;;;;;;;;;;;;;;;;;;5068741;28;902;-61
2021/03/20 10:20:52;;;;;;;;;;;;;;;;;;5068814;28;863;-61
2021/03/20 10:23:33;;;;;;;;;;;;;;;;;;5068195;28;910;-61
2021/03/20 10:26:01;;;;;;;;;;;;;;;;;;5069068;28;887;-61
2021/03/20 10:28:30;;;;;;;;;;;;;;;;;;5068390;28;886;-61
2021/03/20 10:30:57;;;;;;;;;;;;;;;;;;5066778;28;1321;-61
2021/03/20 10:33:26;;;;;;;;;;;;;;;;;;5067971;28;1885;-61
2021/03/20 10:35:51;;;;;;;;;;;;;;;;;;5068522;28;853;-61
2021/03/20 10:38:23;;;;;;;;;;;;;;;;;;5066163;28;1185;-61
2021/03/20 10:40:57;;;;;;;;;;;;;;;;;;5067355;28;897;-61
2021/03/20 10:43:24;;;;;;;;;;;;;;;;;;5067087;28;885;-61
2021/03/20 10:45:49;;;;;;;;;;;;;;;;;;5067588;28;834;-61
2021/03/20 10:48:17;;;;;;;;;;;;;;;;;;5067398;28;893;-61
2021/03/20 10:50:44;;;;;;;;;;;;;;;;;;5067539;28;918;-62
2021/03/20 10:53:18;;;;;;;;;;;;;;;;;;5063428;28;1902;-62
2021/03/20 10:55:48;;;;;;;;;;;;;;;;;;5047844;28;890;-62
2021/03/20 10:58:28;;;;;;;;;;;;;;;;;;5047453;28;899;-62
2021/03/20 11:00:54;;;;;;;;;;;;;;;;;;5047649;28;811;-62
2021/03/20 11:03:22;;;;;;;;;;;;;;;;;;5047639;28;845;-62
2021/03/20 11:05:48;;;;;;;;;;;;;;;;;;5047404;28;855;-62
2021/03/20 11:08:16;;;;;;;;;;;;;;;;;;5047381;28;878;-62
2021/03/20 11:10:42;;;;;;;;;;;;;;;;;;5045856;28;1174;-63
2021/03/20 11:13:17;;;;;;;;;;;;;;;;;;5047082;28;1961;-62
2021/03/20 11:15:47;;;;;;;;;;;;;;;;;;5046908;28;930;-62
2021/03/20 11:18:17;;;;;;;;;;;;;;;;;;5047047;28;922;-62
2021/03/20 11:20:44;;;;;;;;;;;;;;;;;;5047061;28;847;-62
2021/03/20 11:23:25;;;;;;;;;;;;;;;;;;5046950;28;823;-62
2021/03/20 11:25:51;;;;;;;;;;;;;;;;;;5047356;28;854;-62
2021/03/20 11:28:26;;;;;;;;;;;;;;;;;;5046999;28;761;-62
2021/03/20 11:30:53;;;;;;;;;;;;;;;;;;5047229;28;846;-62
2021/03/20 11:33:21;;;;;;;;;;;;;;;;;;5047005;28;1989;-62
2021/03/20 11:35:48;;;;;;;;;;;;;;;;;;5047145;28;835;-62
2021/03/20 11:38:14;;;;;;;;;;;;;;;;;;5046787;28;883;-62
2021/03/20 11:40:42;;;;;;;;;;;;;;;;;;5046624;28;930;-62
2021/03/20 11:43:15;;;;;;;;;;;;;;;;;;5047211;28;906;-62
2021/03/20 11:45:42;;;;;;;;;;;;;;;;;;5046745;28;946;-63
2021/03/20 11:48:16;;;;;;;;;;;;;;;;;;5046935;28;899;-62
2021/03/20 11:50:42;;;;;;;;;;;;;;;;;;5047645;28;934;-62
2021/03/20 11:53:22;;;;;;;;;;;;;;;;;;5050955;28;1890;-63
2021/03/20 11:55:47;;;;;;;;;;;;;;;;;;5069434;28;819;-62
2021/03/20 11:58:22;;;;;;;;;;;;;;;;;;5071039;28;803;-62
2021/03/20 12:00:47;;;;;;;;;;;;;;;;;;5069954;28;980;-62
2021/03/20 12:03:22;;;;;;;;;;;;;;;;;;5070661;28;875;-62
2021/03/20 12:05:48;;;;;;;;;;;;;;;;;;5071177;28;862;-62
2021/03/20 12:08:19;;;;;;;;;;;;;;;;;;5071136;28;930;-61
2021/03/20 12:11:05;;;;;;;;;;;;;;;;;;5070798;28;839;-61
2021/03/20 12:13:36;;;;;;;;;;;;;;;;;;5071218;28;1957;-62
2021/03/20 12:16:02;;;;;;;;;;;;;;;;;;5071228;28;949;-62
2021/03/20 12:18:27;;;;;;;;;;;;;;;;;;5071244;28;854;-62
2021/03/20 12:21:02;;;;;;;;;;;;;;;;;;5070449;28;815;-62
2021/03/20 12:23:32;;;;;;;;;;;;;;;;;;5068321;28;1014;-62
2021/03/20 12:25:58;;;;;;;;;;;;;;;;;;5071401;28;624;-62
2021/03/20 12:28:31;;;;;;;;;;;;;;;;;;5070058;28;906;-62
2021/03/20 12:31:07;;;;;;;;;;;;;;;;;;5070109;28;818;-62
2021/03/20 12:33:43;;;;;;;;;;;;;;;;;;5070328;28;1874;-62
2021/03/20 12:36:15;;;;;;;;;;;;;;;;;;5070084;28;902;-62
2021/03/20 12:38:41;;;;;;;;;;;;;;;;;;5070106;28;917;-62
2021/03/20 12:41:06;;;;;;;;;;;;;;;;;;5070193;28;815;-62
2021/03/20 12:43:34;;;;;;;;;;;;;;;;;;5070766;28;858;-62
2021/03/20 12:46:00;;;;;;;;;;;;;;;;;;5070766;28;850;-62
2021/03/20 12:48:26;;;;;;;;;;;;;;;;;;5069984;28;877;-62
2021/03/20 12:50:56;;;;;;;;;;;;;;;;;;5069874;28;839;-62
2021/03/20 12:53:21;;;;;;;;;;;;;;;;;;5063652;28;1977;-62
2021/03/20 12:55:47;;;;;;;;;;;;;;;;;;5049599;28;838;-62
2021/03/20 12:58:12;;;;;;;;;;;;;;;;;;5050310;28;730;-62
2021/03/20 13:00:37;;;;;;;;;;;;;;;;;;5050058;28;839;-62
2021/03/20 13:03:03;;;;;;;;;;;;;;;;;;5049592;28;878;-62
2021/03/20 13:05:33;;;;;;;;;;;;;;;;;;5050321;28;870;-62
2021/03/20 13:07:58;;;;;;;;;;;;;;;;;;5050007;28;854;-62
2021/03/20 13:10:24;;;;;;;;;;;;;;;;;;5049121;28;819;-62
2021/03/20 13:12:50;;;;;;;;;;;;;;;;;;5049255;28;1886;-62
2021/03/20 13:15:15;;;;;;;;;;;;;;;;;;5049743;28;827;-62
2021/03/20 13:17:41;;;;;;;;;;;;;;;;;;5048294;28;943;-62
2021/03/20 13:20:08;;;;;;;;;;;;;;;;;;5049763;28;879;-62
2021/03/20 13:22:33;;;;;;;;;;;;;;;;;;5049977;28;807;-62
2021/03/20 13:24:58;;;;;;;;;;;;;;;;;;5049646;28;819;-62
2021/03/20 13:27:24;;;;;;;;;;;;;;;;;;5048883;28;843;-62
2021/03/20 13:29:50;;;;;;;;;;;;;;;;;;5049360;28;1681;-62
2021/03/20 13:32:15;;;;;;;;;;;;;;;;;;5049546;28;1890;-62
2021/03/20 13:34:41;;;;;;;;;;;;;;;;;;5049436;28;838;-62
2021/03/20 13:37:06;;;;;;;;;;;;;;;;;;5049472;28;886;-62
2021/03/20 13:39:32;;;;;;;;;;;;;;;;;;5050393;28;819;-62
2021/03/20 13:41:57;;;;;;;;;;;;;;;;;;5049731;28;901;-61
2021/03/20 13:44:22;;;;;;;;;;;;;;;;;;5049163;28;960;-62
2021/03/20 13:46:48;;;;;;;;;;;;;;;;;;5049526;28;930;-61
2021/03/20 13:49:13;;;;;;;;;;;;;;;;;;5049395;28;883;-61
2021/03/20 13:51:39;;;;;;;;;;;;;;;;;;5049072;28;839;-62
2021/03/20 13:54:05;;;;;;;;;;;;;;;;;;5060329;28;1914;-62
2021/03/20 13:56:31;;;;;;;;;;;;;;;;;;5069713;28;871;-61
2021/03/20 13:58:56;;;;;;;;;;;;;;;;;;5068785;28;851;-61
2021/03/20 14:01:21;;;;;;;;;;;;;;;;;;5068653;28;671;-61
2021/03/20 14:03:47;;;;;;;;;;;;;;;;;;5068951;28;897;-62
2021/03/20 14:06:12;;;;;;;;;;;;;;;;;;5067330;28;823;-62
2021/03/20 14:08:38;;;;;;;;;;;;;;;;;;5068503;28;878;-62
2021/03/20 14:11:04;;;;;;;;;;;;;;;;;;5068242;28;885;-62
2021/03/20 14:13:30;;;;;;;;;;;;;;;;;;5069101;28;1977;-61
2021/03/20 14:15:55;;;;;;;;;;;;;;;;;;5067563;28;798;-61
2021/03/20 14:18:22;;;;;;;;;;;;;;;;;;5065952;28;1160;-61
2021/03/20 14:20:49;;;;;;;;;;;;;;;;;;5066631;28;1129;-61
2021/03/20 14:23:16;;;;;;;;;;;;;;;;;;5067827;28;847;-61
2021/03/20 14:25:42;;;;;;;;;;;;;;;;;;5068081;28;818;-61
2021/03/20 14:28:08;;;;;;;;;;;;;;;;;;5067895;28;886;-62
2021/03/20 14:30:35;;;;;;;;;;;;;;;;;;5067791;28;886;-62
2021/03/20 14:33:00;;;;;;;;;;;;;;;;;;5068167;28;1967;-62
2021/03/20 14:35:26;;;;;;;;;;;;;;;;;;5067126;28;838;-61
2021/03/20 14:37:51;;;;;;;;;;;;;;;;;;5067919;28;851;-61
2021/03/20 14:40:17;;;;;;;;;;;;;;;;;;5067934;28;823;-61
2021/03/20 14:42:42;;;;;;;;;;;;;;;;;;5067722;28;894;-62
2021/03/20 14:45:08;;;;;;;;;;;;;;;;;;5067965;28;916;-62
2021/03/20 14:47:33;;;;;;;;;;;;;;;;;;5067749;28;1083;-62
2021/03/20 14:49:59;;;;;;;;;;;;;;;;;;5068662;28;851;-62
2021/03/20 14:52:24;;;;;;;;;;;;;;;;;;5067502;28;1906;-62
2021/03/20 14:54:50;;;;;;;;;;;;;;;;;;5049461;28;1125;-62
2021/03/20 14:57:15;;;;;;;;;;;;;;;;;;5047361;28;934;-62
2021/03/20 14:59:40;;;;;;;;;;;;;;;;;;5047463;28;914;-62
2021/03/20 15:02:06;;;;;;;;;;;;;;;;;;5047496;28;878;-62
2021/03/20 15:04:31;;;;;;;;;;;;;;;;;;5047995;28;847;-62
2021/03/20 15:06:57;;;;;;;;;;;;;;;;;;5047085;28;847;-62
2021/03/20 15:09:22;;;;;;;;;;;;;;;;;;5047510;28;979;-61
2021/03/20 15:11:48;;;;;;;;;;;;;;;;;;5047613;28;822;-62
2021/03/20 15:14:15;;;;;;;;;;;;;;;;;;5046548;28;1885;-62
2021/03/20 15:16:41;;;;;;;;;;;;;;;;;;5046681;28;859;-62
2021/03/20 15:19:06;;;;;;;;;;;;;;;;;;5047536;28;834;-62
2021/03/20 15:21:32;;;;;;;;;;;;;;;;;;5048076;28;862;-62
2021/03/20 15:23:57;;;;;;;;;;;;;;;;;;5046813;28;936;-62
2021/03/20 15:26:25;;;;;;;;;;;;;;;;;;5046998;28;815;-62
2021/03/20 15:28:51;;;;;;;;;;;;;;;;;;5046788;28;854;-62
2021/03/20 15:31:18;;;;;;;;;;;;;;;;;;5046657;28;815;-62
2021/03/20 15:33:43;;;;;;;;;;;;;;;;;;5047024;28;1963;-62
2021/03/20 15:36:08;;;;;;;;;;;;;;;;;;5047397;28;831;-62
2021/03/20 15:38:34;;;;;;;;;;;;;;;;;;5047072;28;954;-62
2021/03/20 15:41:01;;;;;;;;;;;;;;;;;;5047888;28;883;-61
2021/03/20 15:43:28;;;;;;;;;;;;;;;;;;5046911;28;922;-62
2021/03/20 15:45:54;;;;;;;;;;;;;;;;;;5046610;28;916;-62
2021/03/20 15:48:20;;;;;;;;;;;;;;;;;;5046714;28;826;-62
2021/03/20 15:50:47;;;;;;;;;;;;;;;;;;5046854;28;835;-62
2021/03/20 15:53:13;;;;;;;;;;;;;;;;;;5051984;28;1979;-62
2021/03/20 15:55:39;;;;;;;;;;;;;;;;;;5066722;28;787;-62
2021/03/20 15:58:06;;;;;;;;;;;;;;;;;;5066738;28;835;-62
2021/03/20 16:00:31;;;;;;;;;;;;;;;;;;5067806;28;827;-62
2021/03/20 16:02:57;;;;;;;;;;;;;;;;;;5066740;28;851;-62
2021/03/20 16:05:22;;;;;;;;;;;;;;;;;;5066930;28;815;-62
2021/03/20 16:07:48;;;;;;;;;;;;;;;;;;5066972;28;810;-62
2021/03/20 16:10:26;;;;;;;;;;;;;;;;;;5067050;28;881;-62
2021/03/20 16:12:51;;;;;;;;;;;;;;;;;;5066681;28;1960;-62
2021/03/20 16:15:17;;;;;;;;;;;;;;;;;;5063556;28;1061;-62
2021/03/20 16:17:43;;;;;;;;;;;;;;;;;;5067313;28;887;-62
2021/03/20 16:20:09;;;;;;;;;;;;;;;;;;5066485;28;842;-61
2021/03/20 16:22:34;;;;;;;;;;;;;;;;;;5066464;28;1224;-63
2021/03/20 16:25:00;;;;;;;;;;;;;;;;;;5067163;28;714;-62
2021/03/20 16:27:25;;;;;;;;;;;;;;;;;;5066462;28;866;-62
2021/03/20 16:29:51;;;;;;;;;;;;;;;;;;5066408;28;874;-62
2021/03/20 16:32:17;;;;;;;;;;;;;;;;;;5066305;28;1885;-62
2021/03/20 16:34:43;;;;;;;;;;;;;;;;;;5066970;28;842;-61
2021/03/20 16:37:08;;;;;;;;;;;;;;;;;;5066574;28;873;-61
2021/03/20 16:39:33;;;;;;;;;;;;;;;;;;5066195;28;831;-63
2021/03/20 16:42:00;;;;;;;;;;;;;;;;;;5070085;28;866;-61
2021/03/20 16:44:25;;;;;;;;;;;;;;;;;;5070091;28;868;-62
2021/03/20 16:46:51;;;;;;;;;;;;;;;;;;5070303;28;878;-62
2021/03/20 16:49:16;;;;;;;;;;;;;;;;;;5069966;28;822;-61
2021/03/20 16:51:41;;;;;;;;;;;;;;;;;;5069980;28;882;-62
2021/03/20 16:54:07;;;;;;;;;;;;;;;;;;5057157;28;1938;-61
2021/03/20 16:56:33;;;;;;;;;;;;;;;;;;5050319;28;839;-62
2021/03/20 16:58:58;;;;;;;;;;;;;;;;;;5051048;28;866;-61
2021/03/20 17:01:25;;;;;;;;;;;;;;;;;;5049708;28;811;-62
2021/03/20 17:03:51;;;;;;;;;;;;;;;;;;5049261;28;823;-62
2021/03/20 17:06:21;;;;;;;;;;;;;;;;;;5049243;28;855;-62
2021/03/20 17:08:47;;;;;;;;;;;;;;;;;;5049440;28;905;-61
2021/03/20 17:11:12;;;;;;;;;;;;;;;;;;5049292;28;835;-62
2021/03/20 17:13:38;;;;;;;;;;;;;;;;;;5049170;28;1977;-62
2021/03/20 17:16:03;;;;;;;;;;;;;;;;;;5049571;28;938;-62
2021/03/20 17:18:31;;;;;;;;;;;;;;;;;;5050113;28;1672;-61
2021/03/20 17:20:57;;;;;;;;;;;;;;;;;;5049255;28;910;-61
2021/03/20 17:23:23;;;;;;;;;;;;;;;;;;5049451;28;828;-62
2021/03/20 17:25:50;;;;;;;;;;;;;;;;;;5049290;28;859;-61
2021/03/20 17:28:15;;;;;;;;;;;;;;;;;;5049402;28;811;-61
2021/03/20 17:30:41;;;;;;;;;;;;;;;;;;5049372;28;841;-62
2021/03/20 17:33:07;;;;;;;;;;;;;;;;;;5049903;28;1973;-61